createdAt,value
2017-12-31T00:01:09.759Z,-87
2017-12-31T00:03:39.747Z,-86
2017-12-31T00:06:08.451Z,-88
2017-12-31T00:08:43.511Z,-87
2017-12-31T00:11:12.207Z,-86
2017-12-31T00:13:40.895Z,-87
2017-12-31T00:16:19.167Z,-87
2017-12-31T00:18:47.858Z,-87
2017-12-31T00:21:16.585Z,-85
2017-12-31T00:23:51.479Z,-86
2017-12-31T00:26:20.172Z,-86
2017-12-31T00:28:55.808Z,-86
2017-12-31T00:31:25.474Z,-86
2017-12-31T00:33:58.198Z,-85
2017-12-31T00:36:33.279Z,-84
2017-12-31T00:39:02.733Z,-85
2017-12-31T00:41:31.418Z,-85
2017-12-31T00:44:02.075Z,-86
2017-12-31T00:46:36.863Z,-86
2017-12-31T00:49:05.564Z,-86
2017-12-31T00:51:34.280Z,-86
2017-12-31T00:54:02.967Z,-86
2017-12-31T00:56:31.665Z,-86
2017-12-31T00:59:07.364Z,-86
2017-12-31T01:01:44.239Z,-86
2017-12-31T01:04:12.930Z,-85
2017-12-31T01:06:41.624Z,-86
2017-12-31T01:09:17.171Z,-85
2017-12-31T01:11:45.862Z,-86
2017-12-31T01:14:14.552Z,-85
2017-12-31T01:16:43.246Z,-86
2017-12-31T01:19:11.930Z,-85
2017-12-31T01:21:40.636Z,-86
2017-12-31T01:24:10.094Z,-85
2017-12-31T01:26:38.790Z,-85
2017-12-31T01:29:07.478Z,-86
2017-12-31T01:31:36.166Z,-85
2017-12-31T01:34:04.864Z,-86
2017-12-31T01:36:33.551Z,-86
2017-12-31T01:39:02.243Z,-86
2017-12-31T01:41:30.931Z,-86
2017-12-31T01:43:59.628Z,-84
2017-12-31T01:46:29.078Z,-86
2017-12-31T01:49:03.519Z,-85
2017-12-31T01:51:32.230Z,-86
2017-12-31T01:54:00.916Z,-85
2017-12-31T01:56:29.606Z,-86
2017-12-31T01:58:59.174Z,-86
2017-12-31T02:01:27.834Z,-86
2017-12-31T02:03:56.705Z,-85
2017-12-31T02:06:25.372Z,-85
2017-12-31T02:08:54.819Z,-84
2017-12-31T02:11:25.153Z,-85
2017-12-31T02:13:53.838Z,-86
2017-12-31T02:16:23.563Z,-85
2017-12-31T02:18:52.255Z,-86
2017-12-31T02:21:20.938Z,-85
2017-12-31T02:23:51.567Z,-85
2017-12-31T02:26:20.255Z,-84
2017-12-31T02:28:48.938Z,-86
2017-12-31T02:31:17.626Z,-85
2017-12-31T02:33:46.323Z,-86
2017-12-31T02:36:15.007Z,-86
2017-12-31T02:38:43.702Z,-86
2017-12-31T02:41:12.393Z,-86
2017-12-31T02:43:41.850Z,-86
2017-12-31T02:46:17.598Z,-86
2017-12-31T02:48:46.318Z,-86
2017-12-31T02:51:14.999Z,-85
2017-12-31T02:53:43.692Z,-86
2017-12-31T02:56:12.379Z,-87
2017-12-31T02:58:41.062Z,-86
2017-12-31T03:01:09.750Z,-86
2017-12-31T03:03:39.302Z,-86
2017-12-31T03:06:11.497Z,-86
2017-12-31T03:08:47.237Z,-86
2017-12-31T03:11:15.923Z,-86
2017-12-31T03:13:44.615Z,-85
2017-12-31T03:16:13.313Z,-86
2017-12-31T03:18:43.847Z,-86
2017-12-31T03:21:12.566Z,-85
2017-12-31T03:23:42.019Z,-86
2017-12-31T03:26:10.707Z,-85
2017-12-31T03:28:39.401Z,-85
2017-12-31T03:31:08.079Z,-86
2017-12-31T03:33:36.763Z,-85
2017-12-31T03:36:05.450Z,-86
2017-12-31T03:38:34.138Z,-85
2017-12-31T03:41:02.827Z,-85
2017-12-31T03:43:31.531Z,-85
2017-12-31T03:46:00.210Z,-85
2017-12-31T03:48:28.894Z,-84
2017-12-31T03:50:57.591Z,-84
2017-12-31T03:53:26.290Z,-85
2017-12-31T03:55:55.738Z,-86
2017-12-31T03:58:31.644Z,-85
2017-12-31T04:01:01.111Z,-86
2017-12-31T04:03:29.794Z,-85
2017-12-31T04:05:58.487Z,-86
2017-12-31T04:08:27.181Z,-85
2017-12-31T04:10:55.866Z,-85
2017-12-31T04:13:24.554Z,-85
2017-12-31T04:15:53.250Z,-86
2017-12-31T04:18:21.932Z,-86
2017-12-31T04:20:50.624Z,-85
2017-12-31T04:23:19.307Z,-86
2017-12-31T04:25:48.003Z,-86
2017-12-31T04:28:17.467Z,-86
2017-12-31T04:30:46.154Z,-85
2017-12-31T04:33:14.839Z,-86
2017-12-31T04:35:43.526Z,-87
2017-12-31T04:38:13.199Z,-87
2017-12-31T04:40:41.878Z,-87
2017-12-31T04:43:10.570Z,-87
2017-12-31T04:45:45.080Z,-87
2017-12-31T04:48:15.410Z,-87
2017-12-31T04:53:56.554Z,-87
2017-12-31T04:56:25.250Z,-87
2017-12-31T04:58:53.944Z,-87
2017-12-31T05:01:22.626Z,-85
2017-12-31T05:03:52.296Z,-86
2017-12-31T05:06:31.222Z,-87
2017-12-31T05:12:07.165Z,-87
2017-12-31T05:14:41.159Z,-84
2017-12-31T05:17:10.839Z,-86
2017-12-31T05:19:39.529Z,-89
2017-12-31T05:22:08.226Z,-87
2017-12-31T05:24:47.332Z,-87
2017-12-31T05:27:31.762Z,-87
2017-12-31T05:30:09.377Z,-87
2017-12-31T05:32:38.079Z,-87
2017-12-31T05:35:06.823Z,-85
2017-12-31T05:43:43.085Z,-84
2017-12-31T05:46:11.784Z,-85
2017-12-31T05:48:46.654Z,-84
2017-12-31T05:54:19.481Z,-90
2017-12-31T05:56:52.529Z,-90
2017-12-31T05:59:42.208Z,-89
2017-12-31T06:02:30.342Z,-89
2017-12-31T06:05:02.632Z,-89
2017-12-31T06:07:36.014Z,-88
2017-12-31T06:10:11.226Z,-88
2017-12-31T06:12:43.010Z,-88
2017-12-31T06:15:13.141Z,-88
2017-12-31T06:17:52.630Z,-89
2017-12-31T06:20:27.408Z,-88
2017-12-31T06:25:39.364Z,-88
2017-12-31T06:28:11.562Z,-89
2017-12-31T06:30:55.284Z,-89
2017-12-31T06:36:10.198Z,-89
2017-12-31T06:38:46.368Z,-89
2017-12-31T06:41:24.021Z,-89
2017-12-31T06:44:03.414Z,-89
2017-12-31T06:46:38.288Z,-88
2017-12-31T06:57:38.313Z,-89
2017-12-31T07:00:21.921Z,-89
2017-12-31T07:05:36.081Z,-88
2017-12-31T07:08:05.596Z,-88
2017-12-31T07:10:34.307Z,-88
2017-12-31T07:13:09.283Z,-88
2017-12-31T07:15:38.002Z,-88
2017-12-31T07:18:06.711Z,-88
2017-12-31T07:20:41.808Z,-87
2017-12-31T07:23:10.821Z,-88
2017-12-31T07:25:40.023Z,-88
2017-12-31T07:28:15.147Z,-87
2017-12-31T07:30:50.618Z,-88
2017-12-31T07:33:19.580Z,-88
2017-12-31T07:35:48.609Z,-88
2017-12-31T07:38:18.265Z,-87
2017-12-31T07:40:48.366Z,-87
2017-12-31T07:43:17.457Z,-87
2017-12-31T07:45:47.329Z,-87
2017-12-31T07:48:16.329Z,-87
2017-12-31T07:50:45.609Z,-87
2017-12-31T07:53:15.199Z,-88
2017-12-31T07:55:45.847Z,-87
2017-12-31T07:58:14.936Z,-87
2017-12-31T08:06:56.279Z,-88
2017-12-31T08:09:44.448Z,-87
2017-12-31T08:15:19.328Z,-88
2017-12-31T08:17:53.996Z,-87
2017-12-31T08:20:23.752Z,-87
2017-12-31T08:22:53.222Z,-87
2017-12-31T08:25:22.084Z,-87
2017-12-31T08:27:50.968Z,-87
2017-12-31T08:30:20.086Z,-87
2017-12-31T08:32:48.965Z,-88
2017-12-31T08:35:24.227Z,-88
2017-12-31T08:37:54.341Z,-88
2017-12-31T08:40:29.803Z,-88
2017-12-31T08:43:00.207Z,-88
2017-12-31T08:45:29.729Z,-88
2017-12-31T08:47:58.954Z,-87
2017-12-31T08:50:28.083Z,-88
2017-12-31T08:52:57.385Z,-88
2017-12-31T08:55:26.813Z,-87
2017-12-31T08:57:55.992Z,-87
2017-12-31T09:00:31.428Z,-87
2017-12-31T09:03:00.922Z,-86
2017-12-31T09:05:37.307Z,-88
2017-12-31T09:08:06.631Z,-87
2017-12-31T09:10:42.648Z,-88
2017-12-31T09:13:13.055Z,-87
2017-12-31T09:15:44.199Z,-87
2017-12-31T09:18:16.011Z,-88
2017-12-31T09:21:04.724Z,-88
2017-12-31T09:26:33.336Z,-88
2017-12-31T09:29:03.560Z,-88
2017-12-31T09:31:38.510Z,-87
2017-12-31T09:34:07.724Z,-87
2017-12-31T09:36:38.520Z,-87
2017-12-31T09:39:08.048Z,-86
2017-12-31T09:41:37.376Z,-88
2017-12-31T09:44:13.839Z,-88
2017-12-31T09:46:44.557Z,-88
2017-12-31T09:49:15.015Z,-87
2017-12-31T09:51:51.902Z,-88
2017-12-31T09:54:28.625Z,-87
2017-12-31T09:56:58.396Z,-87
2017-12-31T09:59:34.477Z,-88
2017-12-31T10:02:11.260Z,-88
2017-12-31T10:04:43.310Z,-88
2017-12-31T10:07:13.037Z,-88
2017-12-31T10:10:07.317Z,-87
2017-12-31T10:12:36.796Z,-87
2017-12-31T10:15:06.887Z,-88
2017-12-31T10:17:36.919Z,-88
2017-12-31T10:20:08.401Z,-88
2017-12-31T10:22:37.271Z,-87
2017-12-31T10:25:06.239Z,-87
2017-12-31T10:27:42.983Z,-87
2017-12-31T10:30:17.620Z,-87
2017-12-31T10:32:49.933Z,-87
2017-12-31T10:35:28.243Z,-87
2017-12-31T10:38:06.143Z,-88
2017-12-31T10:40:44.374Z,-88
2017-12-31T10:43:21.329Z,-88
2017-12-31T10:45:51.694Z,-87
2017-12-31T10:48:28.663Z,-88
2017-12-31T10:51:02.747Z,-87
2017-12-31T10:53:32.781Z,-88
2017-12-31T10:56:05.866Z,-88
2017-12-31T10:58:45.208Z,-87
2017-12-31T11:01:24.560Z,-88
2017-12-31T11:04:00.454Z,-88
2017-12-31T11:09:16.516Z,-88
2017-12-31T11:27:10.727Z,-88
2017-12-31T11:29:44.603Z,-88
2017-12-31T11:32:19.071Z,-88
2017-12-31T11:34:54.435Z,-87
2017-12-31T11:37:28.666Z,-88
2017-12-31T11:40:02.455Z,-88
2017-12-31T11:42:36.473Z,-88
2017-12-31T11:45:07.315Z,-88
2017-12-31T11:47:46.335Z,-88
2017-12-31T11:50:18.236Z,-87
2017-12-31T11:52:59.625Z,-88
2017-12-31T11:55:30.725Z,-88
2017-12-31T11:58:02.736Z,-88
2017-12-31T12:00:43.186Z,-87
2017-12-31T12:03:25.771Z,-88
2017-12-31T12:06:02.485Z,-87
2017-12-31T12:08:44.746Z,-87
2017-12-31T12:11:23.199Z,-88
2017-12-31T12:13:57.056Z,-89
2017-12-31T12:16:53.560Z,-88
2017-12-31T12:19:29.979Z,-88
2017-12-31T12:22:07.273Z,-88
2017-12-31T12:24:52.339Z,-88
2017-12-31T12:27:36.252Z,-88
2017-12-31T12:30:20.755Z,-88
2017-12-31T12:33:09.530Z,-88
2017-12-31T12:35:59.814Z,-88
2017-12-31T12:39:01.752Z,-89
2017-12-31T12:42:05.860Z,-88
2017-12-31T12:45:06.099Z,-88
2017-12-31T12:47:41.455Z,-88
2017-12-31T12:50:22.823Z,-88
2017-12-31T12:53:04.549Z,-88
2017-12-31T12:55:33.518Z,-88
2017-12-31T12:58:02.559Z,-88
2017-12-31T13:00:45.125Z,-88
2017-12-31T13:03:16.759Z,-88
2017-12-31T13:05:47.558Z,-88
2017-12-31T13:08:25.404Z,-88
2017-12-31T13:10:57.337Z,-88
2017-12-31T13:13:27.338Z,-88
2017-12-31T13:16:00.503Z,-88
2017-12-31T13:18:38.635Z,-86
2017-12-31T13:21:10.281Z,-88
2017-12-31T13:23:41.759Z,-87
2017-12-31T13:26:11.925Z,-88
2017-12-31T13:28:47.415Z,-89
2017-12-31T13:31:16.318Z,-90
2017-12-31T13:33:52.458Z,-90
2017-12-31T13:36:27.999Z,-90
2017-12-31T13:41:40.020Z,-90
2017-12-31T13:44:15.020Z,-87
2017-12-31T13:47:03.056Z,-89
2017-12-31T13:49:47.288Z,-87
2017-12-31T13:52:58.052Z,-90
2017-12-31T13:55:52.147Z,-87
2017-12-31T14:14:24.652Z,-88
2017-12-31T14:17:00.887Z,-88
2017-12-31T14:19:34.123Z,-88
2017-12-31T14:22:16.110Z,-88
2017-12-31T14:24:47.996Z,-88
2017-12-31T14:27:27.239Z,-88
2017-12-31T14:29:58.543Z,-88
2017-12-31T14:32:33.307Z,-88
2017-12-31T14:35:10.319Z,-88
2017-12-31T14:37:44.600Z,-87
2017-12-31T14:40:17.358Z,-88
2017-12-31T14:42:56.617Z,-88
2017-12-31T14:50:44.392Z,-88
2017-12-31T14:53:22.795Z,-88
2017-12-31T14:55:57.225Z,-88
2017-12-31T14:58:41.771Z,-88
2017-12-31T15:01:22.263Z,-87
2017-12-31T15:03:57.494Z,-88
2017-12-31T15:06:34.365Z,-88
2017-12-31T15:09:04.618Z,-88
2017-12-31T15:11:44.519Z,-88
2017-12-31T15:14:13.926Z,-87
2017-12-31T15:16:45.978Z,-88
2017-12-31T15:19:25.522Z,-88
2017-12-31T15:22:04.440Z,-88
2017-12-31T15:24:45.387Z,-86
2017-12-31T15:27:31.324Z,-88
2017-12-31T15:32:56.749Z,-88
2017-12-31T15:35:36.757Z,-87
2017-12-31T15:38:20.618Z,-88
2017-12-31T15:41:04.584Z,-87
2017-12-31T15:51:13.752Z,-87
2017-12-31T15:53:43.950Z,-87
2017-12-31T15:58:57.736Z,-88
2017-12-31T16:01:34.093Z,-87
2017-12-31T16:04:19.082Z,-87
2017-12-31T16:06:49.952Z,-87
2017-12-31T16:09:19.016Z,-88
2017-12-31T16:11:49.808Z,-88
2017-12-31T16:14:44.640Z,-88
2017-12-31T17:28:57.817Z,-90
2017-12-31T17:31:29.083Z,-87
2017-12-31T17:34:04.745Z,-87
2017-12-31T17:36:39.689Z,-85
2017-12-31T17:39:14.736Z,-85
2017-12-31T17:41:44.302Z,-87
2017-12-31T17:44:21.222Z,-86
2017-12-31T17:46:55.410Z,-88
2017-12-31T17:52:35.222Z,-90
2017-12-31T17:55:33.641Z,-89
2017-12-31T18:04:24.825Z,-88
2017-12-31T18:06:54.373Z,-90
2017-12-31T18:12:49.407Z,-90
2017-12-31T19:00:30.999Z,-89
2017-12-31T19:02:59.723Z,-91
2017-12-31T19:05:55.799Z,-90
2017-12-31T19:08:43.886Z,-90
2017-12-31T19:17:48.292Z,-90
2017-12-31T19:23:23.985Z,-90
2017-12-31T19:26:21.031Z,-91
2017-12-31T19:29:05.578Z,-90
2017-12-31T19:31:37.911Z,-90
2017-12-31T19:34:28.718Z,-90
2017-12-31T19:37:04.901Z,-90
2017-12-31T19:39:33.648Z,-90
2017-12-31T19:48:36.805Z,-90
2017-12-31T19:51:26.082Z,-90
2017-12-31T19:56:39.900Z,-90
2017-12-31T20:05:09.489Z,-90
2017-12-31T20:07:49.998Z,-90
2017-12-31T20:10:43.857Z,-91
2017-12-31T20:13:38.577Z,-90
2017-12-31T20:16:13.026Z,-90
2017-12-31T20:21:42.519Z,-90
2017-12-31T20:24:23.629Z,-91
2017-12-31T20:26:58.307Z,-90
2017-12-31T20:29:29.813Z,-90
2017-12-31T20:32:00.645Z,-90
2017-12-31T20:34:29.895Z,-89
2017-12-31T20:37:04.047Z,-89
2017-12-31T20:39:34.770Z,-89
2017-12-31T20:42:03.593Z,-89
2017-12-31T20:44:42.161Z,-89
2017-12-31T20:47:11.062Z,-87
2017-12-31T20:49:46.034Z,-89
2017-12-31T20:52:14.997Z,-87
2017-12-31T20:54:43.675Z,-89
2017-12-31T20:57:12.407Z,-89
2017-12-31T20:59:41.114Z,-90
2017-12-31T21:02:09.841Z,-89
2017-12-31T21:04:44.823Z,-90
2017-12-31T21:07:19.503Z,-90
2017-12-31T21:09:54.573Z,-90
2017-12-31T21:12:29.511Z,-90
2017-12-31T21:15:04.534Z,-90
2017-12-31T21:17:39.326Z,-90
2017-12-31T21:20:21.638Z,-90
2017-12-31T21:22:56.609Z,-90
2017-12-31T21:25:25.326Z,-90
2017-12-31T21:27:54.783Z,-90
2017-12-31T21:30:23.483Z,-90
2017-12-31T21:32:52.182Z,-90
2017-12-31T21:35:22.508Z,-90
2017-12-31T21:37:52.060Z,-90
2017-12-31T21:40:26.314Z,-90
2017-12-31T21:42:55.032Z,-92
2017-12-31T21:45:24.493Z,-91
2017-12-31T21:47:53.208Z,-92
2017-12-31T21:50:28.107Z,-91
2017-12-31T21:53:03.083Z,-91
2017-12-31T21:55:37.998Z,-92
2017-12-31T21:58:06.699Z,-92
2017-12-31T22:00:41.708Z,-91
2017-12-31T22:17:37.772Z,-91
2017-12-31T22:53:33.743Z,-87
2017-12-31T22:56:03.363Z,-87
2017-12-31T22:58:40.807Z,-88
2017-12-31T23:01:17.930Z,-88
2017-12-31T23:03:47.044Z,-87
2017-12-31T23:06:16.820Z,-88
2017-12-31T23:08:46.684Z,-88
2017-12-31T23:11:23.164Z,-87
2017-12-31T23:13:58.436Z,-88
2017-12-31T23:16:27.615Z,-88
2017-12-31T23:19:01.519Z,-88
2017-12-31T23:21:31.760Z,-88
2017-12-31T23:24:00.763Z,-88
2017-12-31T23:26:39.863Z,-87
2017-12-31T23:29:16.048Z,-87
2017-12-31T23:31:45.635Z,-87
2017-12-31T23:34:20.579Z,-86
2017-12-31T23:39:31.820Z,-86
2017-12-31T23:42:04.298Z,-86
2017-12-31T23:44:39.392Z,-86
2017-12-31T23:47:08.268Z,-86
2017-12-31T23:49:37.442Z,-85
2017-12-31T23:52:12.857Z,-86
2017-12-31T23:54:43.549Z,-85
2017-12-31T23:57:13.600Z,-86
2017-12-31T23:59:43.795Z,-84
